Time;durP1;ratioP1;P1;durP2;ratioP2;P2;SDS_P1;SDS_P2;PMS_P1;PMS_P2;Temp;Humidity;BMP_temperature;BMP_pressure;BME280_temperature;BME280_humidity;BME280_pressure;Samples;Min_cycle;Max_cycle;Signal;HPM_P1;HPM_P2
2023/07/22 00:01:06;;;;;;;3.33;2.15;;;;;;;20.30;52.83;100477.66;4079732;29;20478;-66
2023/07/22 00:03:09;;;;;;;3.88;1.80;;;;;;;20.26;53.26;100481.28;4081623;29;20500;-65
2023/07/22 00:05:12;;;;;;;3.85;2.17;;;;;;;20.20;53.47;100483.16;4076494;29;20040;-65
2023/07/22 00:07:15;;;;;;;4.63;1.85;;;;;;;20.19;53.69;100477.91;4079048;29;20494;-65
2023/07/22 00:09:20;;;;;;;3.03;1.95;;;;;;;20.21;53.54;100489.31;4078929;29;20123;-65
2023/07/22 00:11:22;;;;;;;;;;;;;;;20.13;53.81;100480.72;4077078;29;20071;-65
2023/07/22 00:13:26;;;;;;;3.00;1.90;;;;;;;20.18;53.78;100482.34;4081403;29;20005;-65
2023/07/22 00:15:29;;;;;;;3.30;1.83;;;;;;;20.23;53.70;100488.34;4083513;29;20070;-65
2023/07/22 00:17:32;;;;;;;4.30;1.65;;;;;;;20.23;54.00;100483.06;4083623;29;20052;-65
2023/07/22 00:19:36;;;;;;;3.35;2.00;;;;;;;20.22;54.15;100486.63;4083720;29;20095;-65
2023/07/22 00:21:39;;;;;;;5.32;1.75;;;;;;;20.16;54.42;100481.50;4066636;29;20135;-65
2023/07/22 00:23:42;;;;;;;4.13;1.80;;;;;;;20.18;54.80;100484.97;4085547;29;20043;-65
2023/07/22 00:25:47;;;;;;;2.80;1.67;;;;;;;20.16;54.72;100470.94;4083595;29;20044;-65
2023/07/22 00:27:49;;;;;;;2.70;1.58;;;;;;;20.15;54.50;100485.06;4082748;29;20057;-65
2023/07/22 00:29:52;;;;;;;3.50;1.77;;;;;;;20.16;54.48;100481.50;4051027;29;20104;-65
2023/07/22 00:31:55;;;;;;;4.50;2.15;;;;;;;20.18;53.66;100482.34;4065959;29;20173;-65
2023/07/22 00:33:58;;;;;;;6.97;2.00;;;;;;;20.19;53.92;100476.16;4067867;29;20495;-65
2023/07/22 00:36:01;;;;;;;4.55;1.70;;;;;;;20.20;53.83;100483.16;4082147;29;20139;-65
2023/07/22 00:38:04;;;;;;;2.60;1.92;;;;;;;20.19;53.96;100472.63;4065859;29;20128;-65
2023/07/22 00:40:11;;;;;;;4.60;1.75;;;;;;;20.16;53.48;100472.72;4080132;29;20062;-65
2023/07/22 00:42:16;;;;;;;4.25;2.08;;;;;;;20.11;53.54;100470.19;4084813;29;20039;-65
2023/07/22 00:44:19;;;;;;;2.55;1.65;;;;;;;20.10;53.39;100470.22;4063580;29;20044;-65
2023/07/22 00:46:22;;;;;;;3.15;1.70;;;;;;;20.09;53.86;100472.00;4068089;29;20046;-66
2023/07/22 00:48:26;;;;;;;3.83;2.20;;;;;;;20.11;53.88;100471.97;4062738;29;20050;-65
2023/07/22 00:50:28;;;;;;;5.03;2.15;;;;;;;20.09;53.98;100474.63;4067430;29;20038;-65
2023/07/22 00:52:31;;;;;;;5.53;2.10;;;;;;;20.07;53.92;100460.63;4068322;29;20040;-65
2023/07/22 00:54:34;;;;;;;4.55;2.03;;;;;;;20.07;53.61;100462.41;4083785;29;20099;-65
2023/07/22 00:56:37;;;;;;;5.22;1.95;;;;;;;20.04;53.96;100464.19;4072531;29;20122;-65
2023/07/22 00:58:42;;;;;;;3.85;1.90;;;;;;;20.03;53.71;100467.75;4081732;29;20044;-65
2023/07/22 01:00:44;;;;;;;3.40;1.80;;;;;;;19.98;54.07;100468.78;4071406;29;20070;-65
2023/07/22 01:02:48;;;;;;;5.78;2.22;;;;;;;19.95;53.75;100466.22;4064456;29;20044;-65
2023/07/22 01:04:51;;;;;;;4.53;2.42;;;;;;;19.91;53.86;100467.19;4069220;29;20501;-65
2023/07/22 01:06:56;;;;;;;8.25;2.10;;;;;;;19.88;53.75;100466.34;4085999;29;20043;-65
2023/07/22 01:08:59;;;;;;;7.22;2.47;;;;;;;19.85;53.67;100471.69;4066037;29;20564;-65
2023/07/22 01:11:03;;;;;;;3.63;2.05;;;;;;;19.82;53.86;100465.63;4084224;29;20055;-65
2023/07/22 01:13:06;;;;;;;3.90;2.20;;;;;;;19.78;53.99;100466.56;4083478;29;20082;-65
2023/07/22 01:15:11;;;;;;;8.27;2.17;;;;;;;19.75;54.05;100456.97;4049208;29;20045;-65
2023/07/22 01:17:14;;;;;;;6.15;2.47;;;;;;;19.73;54.81;100464.06;4083858;29;20510;-65
2023/07/22 01:19:19;;;;;;;5.85;2.63;;;;;;;19.73;55.03;100466.69;4065189;29;20071;-65
2023/07/22 01:21:23;;;;;;;5.80;2.25;;;;;;;19.73;54.75;100466.69;4067287;29;20095;-65
2023/07/22 01:23:28;;;;;;;5.30;2.33;;;;;;;19.72;55.28;100464.94;4066755;29;20032;-65
2023/07/22 01:25:31;;;;;;;4.28;2.40;;;;;;;19.73;55.15;100466.69;4088323;28;20538;-65
2023/07/22 01:27:33;;;;;;;5.35;2.25;;;;;;;19.75;55.01;100462.22;4065208;29;20585;-65
2023/07/22 01:29:36;;;;;;;5.28;2.45;;;;;;;19.77;55.12;100464.84;4065760;29;20526;-65
2023/07/22 01:31:39;;;;;;;5.47;2.30;;;;;;;19.77;55.79;100451.63;4061863;29;20071;-65
2023/07/22 01:33:42;;;;;;;5.50;2.17;;;;;;;19.77;55.82;100457.81;4083016;29;20035;-65
2023/07/22 01:35:45;;;;;;;5.10;2.38;;;;;;;19.79;56.06;100453.38;4066945;29;21945;-66
2023/07/22 01:37:50;;;;;;;6.78;2.38;;;;;;;19.78;55.89;100453.38;4082401;29;20048;-66
2023/07/22 01:39:56;;;;;;;4.30;2.05;;;;;;;19.75;56.67;100449.03;4081860;29;20131;-66
2023/07/22 01:41:59;;;;;;;5.18;2.30;;;;;;;19.74;56.38;100457.84;4080477;29;20050;-65
2023/07/22 01:44:02;;;;;;;5.65;2.55;;;;;;;19.76;56.56;100449.94;4066219;29;20127;-65
2023/07/22 01:46:05;;;;;;;4.20;2.70;;;;;;;19.77;56.63;100447.25;4083320;29;20046;-65
2023/07/22 01:48:08;;;;;;;5.20;2.17;;;;;;;19.79;57.16;100452.53;4066099;29;20044;-65
2023/07/22 01:50:10;;;;;;;3.33;2.25;;;;;;;19.77;57.34;100447.25;4083022;29;20588;-66
2023/07/22 01:52:13;;;;;;;6.93;2.10;;;;;;;19.78;57.62;100453.38;4079880;29;20036;-65
2023/07/22 01:54:16;;;;;;;3.55;2.08;;;;;;;19.76;57.90;100453.41;4081334;29;20074;-65
2023/07/22 01:56:20;;;;;;;7.85;3.20;;;;;;;19.75;57.73;100449.03;4077101;29;20047;-66
2023/07/22 01:58:23;;;;;;;5.35;2.53;;;;;;;19.70;57.75;100448.31;4059138;29;20044;-65
2023/07/22 02:00:26;;;;;;;8.15;2.60;;;;;;;19.63;57.54;100450.22;4056714;29;20183;-65
2023/07/22 02:02:28;;;;;;;6.57;3.38;;;;;;;19.53;58.28;100456.59;4063654;29;20123;-64
2023/07/22 02:04:31;;;;;;;4.57;2.63;;;;;;;19.52;58.44;100454.84;4079914;29;20042;-66
2023/07/22 02:06:34;;;;;;;4.82;2.28;;;;;;;19.51;59.27;100459.28;4062812;29;20095;-64
2023/07/22 02:08:37;;;;;;;5.97;2.53;;;;;;;19.54;59.00;100448.66;4040958;29;20127;-65
2023/07/22 02:10:40;;;;;;;5.93;2.83;;;;;;;19.57;59.08;100455.63;4079094;29;20048;-65
2023/07/22 02:12:44;;;;;;;6.70;2.67;;;;;;;19.54;59.21;100451.28;4080900;29;20430;-65
2023/07/22 02:14:47;;;;;;;4.43;2.50;;;;;;;19.56;59.05;100453.03;4081627;29;20032;-65
2023/07/22 02:16:49;;;;;;;8.55;3.22;;;;;;;19.57;59.11;100460.03;4081945;29;20078;-66
2023/07/22 02:18:52;;;;;;;6.78;3.10;;;;;;;19.57;59.18;100465.31;4082102;29;20135;-65
2023/07/22 02:20:55;;;;;;;6.60;3.33;;;;;;;19.53;58.89;100470.63;4064858;29;20063;-66
2023/07/22 02:22:58;;;;;;;6.07;2.90;;;;;;;19.56;58.54;100468.84;4077907;29;20039;-65
2023/07/22 02:25:01;;;;;;;5.60;2.90;;;;;;;19.57;57.82;100470.59;4064806;29;20050;-66
2023/07/22 02:27:04;;;;;;;7.55;2.67;;;;;;;19.59;57.06;100479.31;4081137;29;20084;-65
2023/07/22 02:29:08;;;;;;;6.15;2.70;;;;;;;19.64;56.54;100485.34;4064537;29;20040;-65
2023/07/22 02:31:11;;;;;;;6.93;2.67;;;;;;;19.63;56.54;100491.53;4049084;29;20036;-65
2023/07/22 02:33:15;;;;;;;6.90;2.80;;;;;;;19.64;57.27;100480.97;4065243;29;20108;-65
2023/07/22 02:35:18;;;;;;;6.67;2.70;;;;;;;19.60;57.91;100486.34;4061889;29;20040;-65
2023/07/22 02:37:21;;;;;;;5.68;2.55;;;;;;;19.57;58.53;100492.56;4080734;29;20816;-66
2023/07/22 02:39:24;;;;;;;6.72;3.00;;;;;;;19.54;59.40;100496.13;4080170;29;20501;-65
2023/07/22 02:41:26;;;;;;;4.22;2.70;;;;;;;19.47;59.95;100498.94;4081883;29;20087;-65
2023/07/22 02:43:29;;;;;;;5.65;2.53;;;;;;;19.42;60.18;100499.03;4065253;29;20130;-65
2023/07/22 02:45:33;;;;;;;5.43;2.78;;;;;;;19.31;61.08;100496.63;4080408;29;20051;-65
2023/07/22 02:47:36;;;;;;;5.53;2.70;;;;;;;19.20;61.21;100490.69;4078630;29;20055;-65
2023/07/22 02:49:39;;;;;;;4.63;3.10;;;;;;;19.15;61.66;100484.66;4064413;29;20518;-65
2023/07/22 02:51:42;;;;;;;7.60;3.47;;;;;;;19.09;62.38;100480.38;4065165;29;20134;-65
2023/07/22 02:53:46;;;;;;;5.53;2.83;;;;;;;19.02;62.95;100476.13;4075447;29;20043;-65
2023/07/22 02:55:49;;;;;;;4.82;3.28;;;;;;;18.96;63.00;100471.00;4081802;29;20063;-65
2023/07/22 02:57:52;;;;;;;10.75;3.35;;;;;;;18.93;63.60;100481.59;4064329;29;20110;-65
2023/07/22 02:59:55;;;;;;;7.15;3.40;;;;;;;18.88;62.95;100486.09;4064354;29;20590;-66
2023/07/22 03:01:59;;;;;;;5.28;3.00;;;;;;;18.82;63.42;100479.13;4107571;23;20042;-65
2023/07/22 03:04:03;;;;;;;6.70;4.00;;;;;;;18.75;63.97;100478.41;4123854;28;20487;-63
2023/07/22 03:06:09;;;;;;;10.18;6.28;;;;;;;18.79;63.36;100471.28;4124331;28;20061;-63
2023/07/22 03:08:12;;;;;;;8.30;5.25;;;;;;;18.72;64.12;100469.69;4127638;28;20491;-64
2023/07/22 03:10:15;;;;;;;11.10;6.47;;;;;;;18.69;64.69;100464.47;4124392;28;20046;-63
2023/07/22 03:12:17;;;;;;;10.18;6.20;;;;;;;18.71;65.05;100468.81;4118773;28;20435;-64
2023/07/22 03:14:22;;;;;;;11.02;5.40;;;;;;;18.71;64.95;100460.91;4109322;28;20396;-64
2023/07/22 03:16:24;;;;;;;11.10;6.53;;;;;;;18.67;65.36;100461.88;4109724;28;20070;-64
2023/07/22 03:18:30;;;;;;;7.65;5.55;;;;;;;18.59;65.43;100458.53;4091837;29;20039;-63
2023/07/22 03:20:33;;;;;;;7.80;5.45;;;;;;;18.53;65.82;100463.91;4105945;28;20046;-64
2023/07/22 03:22:36;;;;;;;12.23;5.82;;;;;;;18.53;66.10;100472.69;4108770;28;20077;-63
2023/07/22 03:24:38;;;;;;;7.30;5.60;;;;;;;18.53;66.17;100462.16;4096310;28;20543;-64
2023/07/22 03:26:41;;;;;;;10.38;5.80;;;;;;;18.53;66.45;100458.63;4110681;28;20042;-63
2023/07/22 03:28:44;;;;;;;11.60;5.20;;;;;;;18.48;66.13;100454.31;4107207;28;20126;-63
2023/07/22 03:30:47;;;;;;;6.70;5.53;;;;;;;18.49;66.76;100450.78;4112933;28;20070;-63
2023/07/22 03:32:51;;;;;;;9.60;6.07;;;;;;;18.51;67.02;100444.63;4111545;28;20521;-63
2023/07/22 03:34:55;;;;;;;11.32;6.13;;;;;;;18.47;66.96;100447.34;4110304;28;20039;-63
2023/07/22 03:36:58;;;;;;;9.13;5.70;;;;;;;18.40;66.47;100448.34;4112437;28;20547;-63
2023/07/22 03:39:02;;;;;;;7.50;4.88;;;;;;;18.40;66.40;100452.72;4110911;28;20122;-64
2023/07/22 03:41:06;;;;;;;7.78;4.68;;;;;;;18.30;67.55;100459.94;4102878;28;20127;-63
2023/07/22 03:43:08;;;;;;;7.28;4.50;;;;;;;18.30;67.50;100467.81;4101555;28;20038;-63
2023/07/22 03:45:11;;;;;;;12.52;4.78;;;;;;;18.33;67.70;100465.13;4111024;28;20054;-63
2023/07/22 03:47:13;;;;;;;6.45;3.85;;;;;;;18.30;67.79;100466.06;4111511;28;20063;-63
2023/07/22 03:49:16;;;;;;;8.20;5.55;;;;;;;18.35;68.06;100473.88;4114874;28;20057;-63
2023/07/22 03:51:21;;;;;;;9.18;4.78;;;;;;;18.39;68.07;100478.19;4107165;28;20035;-63
2023/07/22 03:53:24;;;;;;;7.15;4.18;;;;;;;18.40;67.81;100479.94;4110556;28;20496;-63
2023/07/22 03:55:27;;;;;;;9.20;4.80;;;;;;;18.42;68.03;100483.38;4105138;28;20031;-63
2023/07/22 03:57:29;;;;;;;5.72;4.35;;;;;;;18.43;68.11;100476.38;4109144;28;20422;-64
2023/07/22 03:59:33;;;;;;;6.75;3.60;;;;;;;18.40;68.27;100479.94;4112830;28;20198;-64
2023/07/22 04:01:36;;;;;;;6.30;3.50;;;;;;;18.38;67.74;100471.16;4108170;28;20047;-64
2023/07/22 04:03:39;;;;;;;8.77;4.88;;;;;;;18.36;67.95;100478.25;4112477;28;20049;-64
2023/07/22 04:05:42;;;;;;;6.85;4.40;;;;;;;18.35;68.42;100468.59;4115109;28;20049;-64
2023/07/22 04:07:46;;;;;;;6.55;4.88;;;;;;;18.37;68.31;100469.47;4111449;28;20039;-64
2023/07/22 04:09:49;;;;;;;7.13;4.20;;;;;;;18.28;68.33;100481.00;4097206;29;20047;-64
2023/07/22 04:11:53;;;;;;;5.05;3.58;;;;;;;18.28;68.19;100481.00;4097463;28;20047;-64
2023/07/22 04:13:56;;;;;;;8.32;4.63;;;;;;;18.30;68.16;100478.34;4103730;28;20058;-64
2023/07/22 04:15:59;;;;;;;7.97;4.75;;;;;;;18.32;68.08;100473.91;4109140;28;20063;-64
2023/07/22 04:18:04;;;;;;;7.85;4.90;;;;;;;18.35;68.27;100465.09;4113166;28;20182;-63
2023/07/22 04:20:08;;;;;;;9.23;5.00;;;;;;;18.35;68.05;100463.34;4112466;28;20432;-64
2023/07/22 04:22:11;;;;;;;8.30;5.05;;;;;;;18.33;68.31;100469.53;4113375;28;20043;-64
2023/07/22 04:24:16;;;;;;;7.00;5.33;;;;;;;18.36;68.37;100457.19;4113371;28;20523;-64
2023/07/22 04:26:22;;;;;;;8.18;5.35;;;;;;;18.37;67.46;100458.94;4114658;28;20047;-64
2023/07/22 04:28:25;;;;;;;5.93;4.57;;;;;;;18.31;67.55;100459.91;4112805;28;20125;-63
2023/07/22 04:30:29;;;;;;;8.85;5.40;;;;;;;18.30;68.11;100457.31;4115547;28;20045;-64
2023/07/22 04:32:32;;;;;;;8.00;5.20;;;;;;;18.33;68.05;100459.88;4113778;28;20130;-63
2023/07/22 04:34:35;;;;;;;8.05;5.35;;;;;;;18.35;68.22;100458.06;4115938;28;20043;-64
2023/07/22 04:36:38;;;;;;;7.10;5.13;;;;;;;18.36;67.88;100466.84;4113490;28;20121;-64
2023/07/22 04:38:41;;;;;;;7.55;4.82;;;;;;;18.37;68.30;100461.56;4112558;28;20070;-64
2023/07/22 04:40:45;;;;;;;8.95;5.50;;;;;;;18.43;68.38;100469.34;4114206;28;20568;-64
2023/07/22 04:42:48;;;;;;;6.70;5.05;;;;;;;18.43;68.40;100458.81;4115873;28;20038;-64
2023/07/22 04:44:51;;;;;;;6.57;4.97;;;;;;;18.42;68.94;100462.31;4109890;28;20177;-64
2023/07/22 04:46:53;;;;;;;8.75;5.40;;;;;;;18.47;68.69;100468.41;4114176;28;20038;-64
2023/07/22 04:48:57;;;;;;;6.45;4.95;;;;;;;18.45;68.44;100466.69;4108006;28;20505;-63
2023/07/22 04:51:00;;;;;;;5.68;4.47;;;;;;;18.43;68.39;100464.06;4107935;28;20416;-67
2023/07/22 04:53:03;;;;;;;4.70;2.70;;;;;;;18.70;66.84;100461.81;4109031;28;20050;-64
2023/07/22 04:55:09;;;;;;;3.53;3.08;;;;;;;19.07;65.88;100468.13;4115222;28;20045;-64
2023/07/22 04:57:13;;;;;;;5.38;3.00;;;;;;;19.38;65.28;100468.38;4114773;28;20066;-63
2023/07/22 04:59:16;;;;;;;3.03;2.70;;;;;;;19.53;64.94;100469.78;4115788;28;20043;-62
2023/07/22 05:01:19;;;;;;;5.95;3.47;;;;;;;19.61;64.22;100466.97;4110367;28;20030;-62
2023/07/22 05:03:25;;;;;;;16.85;5.35;;;;;;;19.55;64.43;100473.25;4113014;28;20121;-64
2023/07/22 05:05:28;;;;;;;8.27;4.68;;;;;;;19.43;64.80;100469.09;4106564;28;20035;-62
2023/07/22 05:07:31;;;;;;;8.45;4.18;;;;;;;19.28;64.78;100474.75;4112332;28;20528;-62
2023/07/22 05:09:34;;;;;;;7.22;3.83;;;;;;;19.16;65.01;100471.47;4114331;28;20039;-62
2023/07/22 05:11:37;;;;;;;7.45;4.00;;;;;;;19.07;65.53;100476.03;4105759;28;20047;-62
2023/07/22 05:13:40;;;;;;;7.35;4.47;;;;;;;19.05;65.74;100475.22;4113095;28;20049;-62
2023/07/22 05:15:43;;;;;;;7.88;4.22;;;;;;;18.96;66.24;100478.91;4112647;28;20130;-62
2023/07/22 05:17:46;;;;;;;6.07;3.13;;;;;;;18.91;66.44;100481.63;4107733;28;20035;-62
2023/07/22 05:19:48;;;;;;;5.82;3.08;;;;;;;18.98;66.33;100480.63;4115314;28;20456;-62
2023/07/22 05:21:51;;;;;;;7.20;3.60;;;;;;;19.19;65.60;100479.28;4111885;28;20039;-62
2023/07/22 05:23:54;;;;;;;4.63;3.10;;;;;;;19.10;65.51;100479.50;4128597;28;20039;-62
2023/07/22 05:25:57;;;;;;;4.70;3.00;;;;;;;19.04;65.61;100481.38;4094175;29;20600;-62
2023/07/22 05:28:00;;;;;;;5.32;3.42;;;;;;;19.00;65.95;100483.22;4113360;28;20050;-63
2023/07/22 05:30:06;;;;;;;7.25;3.70;;;;;;;19.02;65.70;100482.28;4108453;28;20039;-63
2023/07/22 05:32:18;;;;;;;;;;;;;;;19.00;65.78;100491.13;4114063;28;20046;-62
2023/07/22 05:34:35;;;;;;;7.60;3.40;;;;;;;19.01;65.78;100493.72;4114215;28;20380;-62
2023/07/22 05:36:38;;;;;;;5.47;3.00;;;;;;;19.05;65.83;100491.03;4111203;28;20066;-62
2023/07/22 05:38:41;;;;;;;7.50;3.22;;;;;;;19.10;65.70;100503.22;4113709;28;20053;-62
2023/07/22 05:40:43;;;;;;;5.35;3.00;;;;;;;19.06;65.94;100492.78;4098759;28;20043;-62
2023/07/22 05:42:46;;;;;;;6.78;3.30;;;;;;;19.03;65.81;100493.69;4132501;28;20039;-62
2023/07/22 05:44:49;;;;;;;6.72;3.15;;;;;;;19.04;65.82;100492.81;4115083;28;20045;-62
2023/07/22 05:46:53;;;;;;;6.80;3.20;;;;;;;19.16;66.04;100503.09;4114536;28;20408;-63
2023/07/22 05:48:56;;;;;;;4.32;2.60;;;;;;;19.18;65.18;100490.72;4116395;28;20524;-63
2023/07/22 05:50:59;;;;;;;6.03;3.08;;;;;;;19.25;65.33;100499.38;4116609;28;20050;-63
2023/07/22 05:53:02;;;;;;;5.55;2.90;;;;;;;19.25;65.17;100495.91;4115124;28;20390;-63
2023/07/22 05:55:05;;;;;;;5.82;3.20;;;;;;;19.32;64.95;100495.72;4115577;28;20074;-63
2023/07/22 05:57:08;;;;;;;10.85;3.97;;;;;;;19.30;64.65;100500.16;4114135;28;20049;-63
2023/07/22 05:59:11;;;;;;;5.20;3.17;;;;;;;19.20;65.09;100493.31;4112882;28;20042;-63
2023/07/22 06:01:14;;;;;;;6.57;3.50;;;;;;;19.22;64.84;100501.22;4108596;28;20053;-69
2023/07/22 06:03:19;;;;;;;4.13;3.30;;;;;;;19.19;64.71;100496.88;4114356;28;20097;-63
2023/07/22 06:05:22;;;;;;;5.85;3.75;;;;;;;19.11;65.17;100507.56;4116297;28;20531;-63
2023/07/22 06:07:25;;;;;;;9.30;4.15;;;;;;;19.15;65.24;100501.34;4115151;28;20045;-63
2023/07/22 06:09:28;;;;;;;7.78;3.42;;;;;;;19.25;64.76;100507.28;4116202;28;20129;-63
2023/07/22 06:11:31;;;;;;;8.40;3.90;;;;;;;19.29;65.25;100513.34;4113884;28;20485;-64
2023/07/22 06:13:34;;;;;;;5.20;3.00;;;;;;;19.21;65.04;100510.88;4112438;28;20130;-64
2023/07/22 06:15:36;;;;;;;5.55;3.33;;;;;;;19.21;65.49;100513.53;4115568;28;20501;-64
2023/07/22 06:17:38;;;;;;;6.55;3.33;;;;;;;19.20;64.60;100517.06;4115923;28;20035;-64
2023/07/22 06:19:43;;;;;;;5.70;3.88;;;;;;;19.06;65.08;100509.44;4109077;28;20197;-64
2023/07/22 06:21:46;;;;;;;8.55;3.47;;;;;;;19.09;65.41;100517.28;4115530;28;20039;-63
2023/07/22 06:23:49;;;;;;;5.03;3.40;;;;;;;19.05;66.30;100520.88;4114795;28;20065;-64
2023/07/22 06:25:52;;;;;;;6.63;4.20;;;;;;;19.01;65.36;100524.47;4116103;28;20039;-64
2023/07/22 06:27:54;;;;;;;4.35;3.47;;;;;;;18.90;65.24;100522.03;4115953;28;20074;-64
2023/07/22 06:29:58;;;;;;;6.43;3.25;;;;;;;18.90;65.25;100529.09;4116171;28;20044;-64
2023/07/22 06:32:00;;;;;;;5.72;3.67;;;;;;;18.86;65.39;100530.00;4115042;28;20042;-64
2023/07/22 06:34:04;;;;;;;7.07;3.25;;;;;;;18.83;65.80;100525.66;4116030;28;20042;-64
2023/07/22 06:36:08;;;;;;;7.53;3.75;;;;;;;18.91;65.89;100533.44;4116057;28;20035;-64
2023/07/22 06:38:10;;;;;;;5.57;3.03;;;;;;;18.92;65.57;100528.13;4113436;28;20481;-64
2023/07/22 06:40:13;;;;;;;7.85;3.17;;;;;;;18.95;65.36;100529.84;4110003;28;20043;-64
2023/07/22 06:42:16;;;;;;;7.55;3.33;;;;;;;19.01;65.25;100535.00;4108807;28;20153;-64
2023/07/22 06:44:19;;;;;;;7.55;3.90;;;;;;;19.07;65.39;100542.81;4111819;28;20057;-64
2023/07/22 06:46:22;;;;;;;5.55;3.30;;;;;;;19.04;65.15;100542.88;4109490;28;20034;-63
2023/07/22 06:48:25;;;;;;;7.90;3.92;;;;;;;19.04;65.32;100536.72;4109020;28;20055;-64
2023/07/22 06:50:28;;;;;;;5.07;3.00;;;;;;;18.96;65.19;100542.13;4107072;28;20118;-63
2023/07/22 06:52:32;;;;;;;5.75;2.95;;;;;;;18.88;65.76;100544.94;4107748;28;20054;-64
2023/07/22 06:54:34;;;;;;;;;;;;;;;18.90;66.02;100539.63;4115989;28;20070;-63
2023/07/22 06:56:37;;;;;;;4.78;3.50;;;;;;;18.91;66.51;100544.88;4113387;28;20363;-64
2023/07/22 06:58:40;;;;;;;6.60;3.40;;;;;;;19.03;66.40;100543.75;4111391;28;20047;-64
2023/07/22 07:00:43;;;;;;;4.50;3.15;;;;;;;19.15;65.53;100538.22;4107289;28;20461;-64
2023/07/22 07:02:46;;;;;;;7.78;3.67;;;;;;;19.24;65.67;100546.88;4111159;28;20047;-63
2023/07/22 07:04:49;;;;;;;6.47;3.30;;;;;;;19.30;65.54;100542.34;4112334;28;20376;-64
2023/07/22 07:06:52;;;;;;;8.20;3.78;;;;;;;19.35;65.12;100544.88;4106668;28;20038;-64
2023/07/22 07:08:56;;;;;;;4.93;3.72;;;;;;;19.23;65.63;100540.72;4115490;28;20042;-63
2023/07/22 07:11:00;;;;;;;5.47;3.75;;;;;;;19.26;65.86;100540.66;4114416;28;20129;-63
2023/07/22 07:13:03;;;;;;;5.22;3.20;;;;;;;19.35;65.54;100542.25;4115260;28;20097;-63
2023/07/22 07:15:07;;;;;;;6.47;4.22;;;;;;;19.22;65.61;100546.03;4115360;28;20054;-63
2023/07/22 07:17:09;;;;;;;7.47;3.58;;;;;;;19.15;65.98;100543.50;4115415;28;20255;-63
2023/07/22 07:19:12;;;;;;;6.00;3.85;;;;;;;19.32;65.93;100545.81;4115551;28;20047;-63
2023/07/22 07:21:13;;;;;;;8.60;4.60;;;;;;;19.21;65.56;100541.66;4115462;28;20129;-63
2023/07/22 07:23:16;;;;;;;7.20;4.35;;;;;;;19.17;65.55;100551.38;4113533;28;20043;-63
2023/07/22 07:25:21;;;;;;;8.07;4.55;;;;;;;19.11;65.86;100557.63;4115456;28;20127;-63
2023/07/22 07:27:24;;;;;;;6.15;3.30;;;;;;;19.19;65.33;100553.09;4115155;28;20039;-62
2023/07/22 07:29:27;;;;;;;6.10;3.90;;;;;;;19.22;65.76;100554.81;4114567;28;20054;-62
2023/07/22 07:31:46;;;;;;;7.25;3.90;;;;;;;19.33;65.33;100552.81;4110442;28;20047;-63
2023/07/22 07:33:49;;;;;;;8.55;4.63;;;;;;;19.34;65.04;100551.91;4111474;28;20039;-63
2023/07/22 07:35:52;;;;;;;5.07;3.63;;;;;;;19.27;65.50;100547.66;4110995;28;20485;-62
2023/07/22 07:37:57;;;;;;;6.18;4.32;;;;;;;19.39;64.47;100549.19;4109696;28;20633;-64
2023/07/22 07:39:59;;;;;;;6.25;4.15;;;;;;;19.42;64.63;100550.88;4112853;28;20098;-64
2023/07/22 07:42:05;;;;;;;6.80;4.55;;;;;;;19.40;64.25;100545.63;4108416;28;20034;-64
2023/07/22 07:44:07;;;;;;;8.88;4.45;;;;;;;19.46;63.75;100555.19;4110016;28;20092;-64
2023/07/22 07:46:17;;;;;;;6.00;4.65;;;;;;;19.50;64.59;100548.97;4108519;28;20070;-63
2023/07/22 07:48:20;;;;;;;7.57;3.67;;;;;;;19.58;64.06;100557.59;4110981;28;20050;-63
2023/07/22 07:50:23;;;;;;;8.27;4.75;;;;;;;19.68;63.93;100553.84;4106341;28;20071;-64
2023/07/22 07:52:26;;;;;;;6.15;3.83;;;;;;;19.74;63.24;100549.31;4102878;28;20412;-63
2023/07/22 07:54:29;;;;;;;11.50;4.90;;;;;;;19.70;63.63;100540.63;4107651;28;20118;-63
2023/07/22 07:56:35;;;;;;;4.32;2.97;;;;;;;19.70;63.66;100554.66;4111279;28;20501;-64
2023/07/22 07:58:40;;;;;;;8.20;4.25;;;;;;;19.71;63.60;100552.88;4108126;28;20130;-64
2023/07/22 08:00:42;;;;;;;5.68;4.20;;;;;;;19.71;63.26;100547.59;4106500;28;20058;-64
2023/07/22 08:02:45;;;;;;;5.82;3.75;;;;;;;19.84;63.22;100549.13;4106320;28;20043;-63
2023/07/22 08:04:49;;;;;;;7.05;3.67;;;;;;;19.86;63.21;100547.31;4109562;28;20512;-63
2023/07/22 08:06:51;;;;;;;5.60;3.47;;;;;;;19.88;63.25;100553.41;4106827;28;20098;-64
2023/07/22 08:09:00;;;;;;;5.55;3.63;;;;;;;20.05;62.77;100553.03;4109730;28;20101;-64
2023/07/22 08:11:05;;;;;;;6.93;4.00;;;;;;;20.28;62.22;100550.72;4115219;28;20039;-64
2023/07/22 08:13:08;;;;;;;6.18;3.22;;;;;;;20.22;62.14;100549.09;4114742;28;20078;-64
2023/07/22 08:15:12;;;;;;;5.00;3.03;;;;;;;20.13;63.16;100550.19;4114583;28;20038;-64
2023/07/22 08:17:15;;;;;;;12.57;4.00;;;;;;;20.22;62.10;100552.63;4114728;28;20062;-64
2023/07/22 08:19:18;;;;;;;6.18;3.40;;;;;;;20.28;62.34;100550.72;4112757;28;20077;-64
2023/07/22 08:21:21;;;;;;;5.57;3.83;;;;;;;20.34;62.39;100553.22;4113973;28;20102;-64
2023/07/22 08:23:24;;;;;;;5.13;3.40;;;;;;;20.36;61.52;100554.91;4114104;28;20070;-64
2023/07/22 08:25:27;;;;;;;7.30;3.58;;;;;;;20.38;61.32;100553.13;4118884;28;20076;-64
2023/07/22 08:27:30;;;;;;;5.35;3.53;;;;;;;20.46;60.56;100542.34;4117625;28;20126;-64
2023/07/22 08:29:33;;;;;;;4.93;2.90;;;;;;;20.46;60.80;100554.69;4114318;28;20035;-64
2023/07/22 08:31:37;;;;;;;7.15;3.85;;;;;;;20.60;60.28;100554.34;4113772;28;20043;-64
2023/07/22 08:33:39;;;;;;;5.70;3.55;;;;;;;20.53;59.60;100554.50;4114601;28;20046;-64
2023/07/22 08:35:45;;;;;;;6.72;3.40;;;;;;;20.72;59.66;100547.00;4117742;28;20560;-64
2023/07/22 08:37:48;;;;;;;5.40;2.72;;;;;;;20.82;59.76;100550.28;4100213;29;20039;-64
2023/07/22 08:39:51;;;;;;;6.13;3.63;;;;;;;20.92;58.63;100546.47;4117853;28;20043;-64
2023/07/22 08:41:57;;;;;;;3.65;2.30;;;;;;;20.84;59.45;100548.44;4100614;28;20044;-64
2023/07/22 08:44:01;;;;;;;6.00;3.10;;;;;;;20.80;58.84;100548.56;4107096;28;20050;-64
2023/07/22 08:46:07;;;;;;;6.72;3.75;;;;;;;20.78;58.79;100547.72;4115031;28;20338;-64
2023/07/22 08:48:13;;;;;;;7.13;3.70;;;;;;;20.93;58.36;100553.47;4113762;28;20123;-64
2023/07/22 08:50:21;;;;;;;4.53;3.00;;;;;;;20.80;59.01;100543.28;4121997;28;20468;-64
2023/07/22 08:52:24;;;;;;;5.75;3.25;;;;;;;20.88;58.92;100547.44;4118676;28;20108;-64
2023/07/22 08:54:28;;;;;;;5.07;3.00;;;;;;;21.08;57.93;100541.63;4112340;28;20043;-64
2023/07/22 08:56:32;;;;;;;5.38;2.70;;;;;;;21.21;57.35;100547.41;4114830;28;20069;-64
2023/07/22 08:58:36;;;;;;;4.70;2.97;;;;;;;21.50;56.66;100542.19;4117545;28;20043;-64
2023/07/22 09:00:40;;;;;;;;;;;;;;;21.57;55.98;100549.94;4112672;28;20393;-64
2023/07/22 09:02:44;;;;;;;2.80;2.42;;;;;;;21.52;56.23;100546.53;4118723;23;19937;-69
2023/07/22 09:04:48;;;;;;;5.60;2.90;;;;;;;21.82;55.91;100543.03;4100637;28;20491;-69
2023/07/22 09:06:51;;;;;;;5.35;2.88;;;;;;;22.09;53.58;100531.56;4116139;28;20065;-69
2023/07/22 09:08:55;;;;;;;7.45;2.85;;;;;;;21.91;53.83;100534.78;4082125;29;20039;-69
2023/07/22 09:10:58;;;;;;;5.10;2.58;;;;;;;22.00;53.78;100537.13;4115198;28;20134;-69
2023/07/22 09:13:02;;;;;;;5.68;2.60;;;;;;;22.16;53.76;100536.66;4115400;28;20042;-69
2023/07/22 09:15:06;;;;;;;4.38;2.70;;;;;;;22.36;52.56;100528.09;4115500;28;20444;-69
2023/07/22 09:17:10;;;;;;;4.82;2.70;;;;;;;22.52;51.87;100526.63;4096007;29;20141;-67
2023/07/22 09:19:13;;;;;;;7.15;3.03;;;;;;;22.73;51.43;100525.00;4112750;28;20208;-69
2023/07/22 09:21:18;;;;;;;3.83;2.03;;;;;;;22.80;51.94;100520.38;4126493;28;20487;-69
2023/07/22 09:23:33;;;;;;;3.45;2.10;;;;;;;22.82;50.10;100521.16;4113044;28;20039;-69
2023/07/22 09:25:35;;;;;;;;;;;;;;;22.95;49.53;100519.78;4113248;28;20125;-67
2023/07/22 09:27:38;;;;;;;5.75;2.40;;;;;;;23.18;48.91;100523.44;4099110;29;19922;-69
2023/07/22 09:29:42;;;;;;;2.47;1.90;;;;;;;23.08;49.72;100514.06;4111293;28;20043;-69
2023/07/22 09:31:52;;;;;;;2.65;1.85;;;;;;;23.04;50.46;100515.09;4097006;29;20066;-69
2023/07/22 09:33:55;;;;;;;5.30;2.63;;;;;;;23.01;50.02;100516.06;4086422;29;20147;-69
2023/07/22 09:35:58;;;;;;;5.28;2.30;;;;;;;23.01;50.19;100509.00;4107646;28;20038;-69